• Join FlightAware (Why Join?)
  • Login
  • US Flag 
08:53AM EST


 

Airport Tracker/Info


-or-


 

Live Flight TrackerFlight Track Log ✈ AAL2360 ✈ 21-Apr-2013 ✈ KDFW - KORD

Flight Track Log - Related Links

Times and Time Zones

All times are in EDT time to prevent confusion due to time zone crossing. See the AAL2360 flight status page for this flight to view local times or setup timezone preferences in your user account.

Time Position Orientation Groundspeed Altitude Reporting Facility
EDT Latitude Longitude Course Direction KTS MPH feet Rate Location/Type
03:59PM 32.8333 -97.0167 North 201 231 2,800  Level Dallas / Fort Worth TRACON
04:00PM 32.8476 -96.8005 10° North  Level FlightAware Approximate
04:00PM 32.7833 -96.9833 151° Southeast 249 287 5,200  Level Dallas / Fort Worth TRACON
04:01PM 32.9650 -96.8000 North  Level FlightAware Approximate
04:01PM 32.7842 -96.8328 90° East 263 303 9,600  Level Fort Worth Center
04:02PM 33.0825 -96.8011 357° North  Level FlightAware Approximate
04:02PM 32.8633 -96.8150 11° North 232 267 10,900  Level Fort Worth Center
04:03PM 33.1997 -96.8095 357° North  Level FlightAware Approximate
04:03PM 32.9697 -96.8117 North 316 364 13,700  Level Fort Worth Center
04:04PM 33.3171 -96.8167 North  Level FlightAware Approximate
04:04PM 33.0617 -96.8161 358° North 341 392 16,200  Level Fort Worth Center
04:05PM 33.1722 -96.8178 359° North 353 406 18,800 2,280 Climbing Fort Worth Center
04:06PM 33.2619 -96.8197 359° North 358 412 20,800 1,980 Climbing Fort Worth Center
04:07PM 33.3789 -96.8239 358° North 365 420 22,800 1,620 Climbing Fort Worth Center
04:08PM 33.4875 -96.8306 357° North 377 434 24,100 1,080 Climbing Fort Worth Center
04:09PM 33.5981 -96.8350 358° North 394 453 25,000 420 Climbing Fort Worth Center
04:10PM 33.7131 -96.8467 355° North 408 470 25,000  Level Fort Worth Center
04:11PM 33.8233 -96.8183 12° North 408 470 25,000  Level Fort Worth Center
04:12PM 33.9214 -96.7653 24° Northeast 409 471 25,000  Level Fort Worth Center
04:13PM 34.0231 -96.6742 37° Northeast 435 501 25,000  Level Fort Worth Center
04:14PM 34.1164 -96.5831 39° Northeast 435 501 25,000  Level Fort Worth Center
04:15PM 34.2158 -96.4867 39° Northeast 440 506 25,000  Level Fort Worth Center
04:16PM 34.3133 -96.3978 37° Northeast 440 506 25,000  Level Fort Worth Center
04:17PM 34.4106 -96.3008 39° Northeast 440 506 25,000  Level Fort Worth Center
04:18PM 34.5078 -96.2064 39° Northeast 440 506 25,000  Level Fort Worth Center
04:19PM 34.6047 -96.1142 38° Northeast 440 506 25,000  Level Fort Worth Center
04:20PM 34.7039 -96.0219 37° Northeast 440 506 25,000  Level Fort Worth Center
04:21PM 34.8008 -95.9267 39° Northeast 440 506 25,000  Level Fort Worth Center
04:24PM 35.0147 -95.7167 39° Northeast 446 513 25,000  Level Kansas City Center
04:25PM 35.1175 -95.6169 38° Northeast 441 507 25,000  Level Memphis Center
04:26PM 35.2153 -95.5264 37° Northeast 441 507 25,000  Level Memphis Center
04:27PM 35.3131 -95.4281 39° Northeast 441 507 25,000  Level Memphis Center
04:28PM 35.4089 -95.3319 39° Northeast 441 507 25,000  Level Memphis Center
04:29PM 35.5064 -95.2333 39° Northeast 441 507 25,000  Level Memphis Center
04:30PM 35.6042 -95.1369 39° Northeast 441 507 25,000  Level Memphis Center
04:31PM 35.7017 -95.0403 39° Northeast 441 507 25,000  Level Memphis Center
04:32PM 35.7992 -94.9433 39° Northeast 441 507 25,000  Level Memphis Center
04:33PM 35.8964 -94.8439 40° Northeast 441 507 25,000  Level Memphis Center
04:34PM 35.9939 -94.7467 39° Northeast 441 507 25,000  Level Memphis Center
04:35PM 36.0892 -94.6464 40° Northeast 441 507 25,000  Level Memphis Center
04:36PM 36.1969 -94.5414 38° Northeast 441 507 25,000  Level Memphis Center
04:37PM 36.2939 -94.4408 40° Northeast 441 507 25,000  Level Memphis Center
04:38PM 36.4119 -94.3189 40° Northeast 451 519 25,000  Level Kansas City Center
04:39PM 36.5283 -94.1997 39° Northeast 452 520 25,000  Level Kansas City Center
04:40PM 36.6239 -94.1006 40° Northeast 449 517 25,000  Level Kansas City Center
04:41PM 36.7203 -94.0011 40° Northeast 449 517 25,000  Level Kansas City Center
04:42PM 36.8167 -93.9028 39° Northeast 449 517 25,000  Level Kansas City Center
04:43PM 36.9125 -93.8022 40° Northeast 449 517 25,000  Level Kansas City Center
04:44PM 37.0203 -93.6883 40° Northeast 446 513 25,000  Level Kansas City Center
04:45PM 37.1181 -93.5881 39° Northeast 449 517 25,000  Level Kansas City Center
04:46PM 37.2133 -93.4881 40° Northeast 447 514 25,000  Level Kansas City Center
04:47PM 37.3097 -93.3864 40° Northeast 450 518 25,000  Level Kansas City Center
04:48PM 37.4072 -93.2889 38° Northeast 447 514 25,000  Level Kansas City Center
04:49PM 37.5081 -93.1961 36° Northeast 446 513 25,000  Level Kansas City Center
04:51PM 37.6292 -93.0844 36° Northeast 446 513 25,000  Level Kansas City Center
04:52PM 37.7228 -92.9778 42° Northeast 449 517 25,000  Level Kansas City Center
04:53PM 37.8097 -92.8608 47° Northeast 451 519 25,000  Level Kansas City Center
04:54PM 37.9019 -92.7542 42° Northeast 446 513 25,000  Level Kansas City Center
04:55PM 38.0081 -92.6594 35° Northeast 447 514 25,000  Level Kansas City Center
04:56PM 38.1103 -92.5653 36° Northeast 451 519 25,000  Level Kansas City Center
04:57PM 38.2147 -92.4747 34° Northeast 450 518 25,000  Level Kansas City Center
04:58PM 38.3164 -92.3806 36° Northeast 447 514 25,000  Level Kansas City Center
04:59PM 38.4186 -92.2864 36° Northeast 449 517 25,000  Level Kansas City Center
05:00PM 38.5417 -92.1744 35° Northeast 450 518 25,000  Level Kansas City Center
05:01PM 38.6425 -92.0808 36° Northeast 448 516 25,000  Level Kansas City Center
05:02PM 38.7436 -91.9869 36° Northeast 447 514 25,000  Level Kansas City Center
05:03PM 38.8450 -91.8931 36° Northeast 448 516 25,000  Level Kansas City Center
05:04PM 38.9464 -91.7992 36° Northeast 447 514 25,000  Level Kansas City Center
05:05PM 39.0486 -91.7067 35° Northeast 447 514 25,000  Level Kansas City Center
05:06PM 39.1633 -91.5978 36° Northeast 448 516 25,000  Level Kansas City Center
05:07PM 39.2650 -91.5033 36° Northeast 449 517 25,000  Level Kansas City Center
05:08PM 39.3669 -91.4075 36° Northeast 450 518 25,000  Level Kansas City Center
05:09PM 39.4683 -91.3106 36° Northeast 451 519 25,000  Level Kansas City Center
05:10PM 39.5689 -91.2156 36° Northeast 449 517 25,000  Level Kansas City Center
05:11PM 39.6686 -91.1200 36° Northeast 447 514 25,000  Level Kansas City Center
05:12PM 39.7683 -91.0222 37° Northeast 445 512 25,000  Level Kansas City Center
05:13PM 39.8792 -90.9103 38° Northeast 445 512 25,000  Level Kansas City Center
05:14PM 39.9769 -90.8119 38° Northeast 444 511 25,000  Level Kansas City Center
05:15PM 40.0744 -90.7131 38° Northeast 443 510 25,000  Level Kansas City Center
05:16PM 40.1722 -90.6147 38° Northeast 443 510 25,000  Level Kansas City Center
05:17PM 40.2897 -90.4950 38° Northeast 444 511 25,000  Level Chicago Center
05:18PM 40.3794 -90.3883 42° Northeast 441 507 25,000  Level Chicago Center
05:19PM 40.4597 -90.2661 49° Northeast 443 510 25,000  Level Chicago Center
05:21PM 40.5475 -90.1400 47° Northeast 441 507 25,000  Level Chicago Center
05:22PM 40.6297 -90.0206 48° Northeast 443 510 25,000  Level Chicago Center
05:23PM 40.7119 -89.9014 48° Northeast 442 509 25,000  Level Chicago Center
05:24PM 40.8097 -89.7564 48° Northeast 442 509 25,000 -240 Level Chicago Center
05:25PM 40.8908 -89.6381 48° Northeast 437 503 24,600 -540 Descending Chicago Center
05:26PM 40.9756 -89.5139 48° Northeast 432 497 24,000 -360 Descending Chicago Center
05:27PM 41.0561 -89.3961 48° Northeast 432 497 23,900 -1,140 Descending Chicago Center
05:28PM 41.1369 -89.2753 48° Northeast 435 501 21,700 -2,100 Descending Chicago Center
05:29PM 41.2103 -89.1650 49° Northeast 431 496 19,600 -2,220 Descending Chicago Center
05:30PM 41.3011 -89.0264 49° Northeast 419 482 17,200 -2,340 Descending Chicago Center
05:31PM 41.3747 -88.9164 48° Northeast 401 461 14,800 -2,340 Descending Chicago Center
05:32PM 41.4464 -88.8089 48° Northeast 390 449 12,500 -1,860 Descending Chicago Center
05:33PM 41.5131 -88.7050 49° Northeast 374 430 11,000 -780 Descending Chicago Center
05:34PM 41.5564 -88.5933 63° Northeast 337 388 11,000 -240 Level Chicago Center
05:35PM 41.6006 -88.4861 61° Northeast 330 380 10,600 -780 Descending Chicago Center
05:36PM 41.6522 -88.3994 51° Northeast 301 346 9,400 -1,500 Descending Chicago Center
05:37PM 41.7431 -88.3619 17° North 283 326 7,600 -1,620 Descending Chicago Center
05:38PM 41.8183 -88.3258 20° North 285 328 6,200 -1,380 Descending Chicago Center
05:39PM 41.8897 -88.2872 22° Northeast 282 325 4,800 -1,080 Descending Chicago Center
05:40PM 41.9500 -88.2364 32° Northeast 277 319 4,000 -780 Descending Chicago Center